Portada
METAR-TAF:

METAR-TAF

Aeroports :

Bermudes, Bermudes

latitud: 32-22N, longitud: 064-41W, altitud: 6 m

Observació

L'informe es va fer fa 1 hora i 0 minuts, a les 09:55 UTC
Vent 8 kt del Nord
Temperatura 24°C
Humitat 65%
Pressió 1022 hPa
Visibilitat 10 km o més
Escasses núvols a una alçada de 3700 ft
Escasses núvols a una alçada de 5000 ft

METAR: TXKF 150955Z 01008KT 9999 FEW037 FEW050 24/17 Q1022

Hora: 07:55 (10:55 UTC)

Pronòstic

L'informe es va fer fa 5 hores i 20 minuts, a les 05:35 UTC
Pronòstic vàlid del 15 a les 06 UTC al 16 a les 06 UTC
Vent 12 kt del Nord-Est
Visibilitat 10 km o més
Núvols disperses a una alçada de 2500 ft
Cel ennuvolat a una alçada de 6000 ft

TAF: TXKF 150535Z 1506/1606 05012KT 9999 SCT025 BKN060

Observacions i pronòstics meteorològics de més de 4000 aeroports (METAR i TAF).

Les estacions disponibles són els punts grocs i vermells al mapa.

Posi el ratolí al punt desitjat per veure el nom de l'estació.

Feu clic per veure les observacions i els pronòstics meteorològics.

Per canviar el mapa: feu clic els botons verds amb una creu de color negre per apropar; al botó verd amb un guió per allunyar la imatge; o en les fletxes verdes per a mapes adjacents.


METAR-TAF: